sensor_id;sensor_type;location;lat;lon;timestamp;pressure;altitude;pressure_sealevel;temperature;humidity
19112;BME280;9688;51.906;8.376;2022-12-18T00:01:05;102091.56;;;-5.43;85.52
19112;BME280;9688;51.906;8.376;2022-12-18T00:03:51;102082.09;;;-5.44;85.67
19112;BME280;9688;51.906;8.376;2022-12-18T00:06:39;102084.75;;;-5.43;85.32
19112;BME280;9688;51.906;8.376;2022-12-18T00:09:26;102086.50;;;-5.42;85.39
19112;BME280;9688;51.906;8.376;2022-12-18T00:12:13;102101.16;;;-5.41;85.15
19112;BME280;9688;51.906;8.376;2022-12-18T00:14:58;102095.28;;;-5.38;85.75
19112;BME280;9688;51.906;8.376;2022-12-18T00:17:45;102096.31;;;-5.34;85.12
19112;BME280;9688;51.906;8.376;2022-12-18T00:20:31;102099.94;;;-5.31;85.45
19112;BME280;9688;51.906;8.376;2022-12-18T00:23:16;102093.97;;;-5.30;85.47
19112;BME280;9688;51.906;8.376;2022-12-18T00:26:04;102097.50;;;-5.28;85.42
19112;BME280;9688;51.906;8.376;2022-12-18T00:28:51;102099.19;;;-5.28;85.40
19112;BME280;9688;51.906;8.376;2022-12-18T00:31:37;102100.00;;;-5.29;85.63
19112;BME280;9688;51.906;8.376;2022-12-18T00:34:24;102105.00;;;-5.32;85.79
19112;BME280;9688;51.906;8.376;2022-12-18T00:37:09;102107.50;;;-5.34;85.61
19112;BME280;9688;51.906;8.376;2022-12-18T00:39:55;102108.16;;;-5.38;85.59
19112;BME280;9688;51.906;8.376;2022-12-18T00:42:40;102105.56;;;-5.38;85.68
19112;BME280;9688;51.906;8.376;2022-12-18T00:45:41;102111.53;;;-5.39;85.85
19112;BME280;9688;51.906;8.376;2022-12-18T00:48:27;102098.56;;;-5.41;85.67
19112;BME280;9688;51.906;8.376;2022-12-18T00:51:14;102108.00;;;-5.41;85.73
19112;BME280;9688;51.906;8.376;2022-12-18T00:53:59;102104.63;;;-5.40;85.60
19112;BME280;9688;51.906;8.376;2022-12-18T00:56:45;102100.28;;;-5.41;85.79
19112;BME280;9688;51.906;8.376;2022-12-18T00:59:31;102101.16;;;-5.41;85.67
19112;BME280;9688;51.906;8.376;2022-12-18T01:02:16;102097.69;;;-5.41;85.69
19112;BME280;9688;51.906;8.376;2022-12-18T01:05:02;102097.69;;;-5.41;85.74
19112;BME280;9688;51.906;8.376;2022-12-18T01:07:49;102089.81;;;-5.44;86.38
19112;BME280;9688;51.906;8.376;2022-12-18T01:10:35;102091.50;;;-5.45;86.01
19112;BME280;9688;51.906;8.376;2022-12-18T01:13:20;102088.13;;;-5.44;86.24
19112;BME280;9688;51.906;8.376;2022-12-18T01:16:06;102078.78;;;-5.42;85.99
19112;BME280;9688;51.906;8.376;2022-12-18T01:18:52;102080.38;;;-5.44;85.94
19112;BME280;9688;51.906;8.376;2022-12-18T01:21:39;102087.00;;;-5.49;86.32
19112;BME280;9688;51.906;8.376;2022-12-18T01:24:26;102092.97;;;-5.50;86.50
19112;BME280;9688;51.906;8.376;2022-12-18T01:27:11;102084.50;;;-5.47;86.46
19112;BME280;9688;51.906;8.376;2022-12-18T01:29:57;102091.56;;;-5.43;86.34
19112;BME280;9688;51.906;8.376;2022-12-18T01:32:42;102093.50;;;-5.39;86.18
19112;BME280;9688;51.906;8.376;2022-12-18T01:35:28;102093.66;;;-5.36;85.91
19112;BME280;9688;51.906;8.376;2022-12-18T01:38:13;102100.56;;;-5.35;86.28
19112;BME280;9688;51.906;8.376;2022-12-18T01:41:01;102089.47;;;-5.34;86.17
19112;BME280;9688;51.906;8.376;2022-12-18T01:43:49;102093.91;;;-5.31;86.07
19112;BME280;9688;51.906;8.376;2022-12-18T01:46:35;102090.50;;;-5.30;86.07
19112;BME280;9688;51.906;8.376;2022-12-18T01:49:21;102095.75;;;-5.29;86.26
19112;BME280;9688;51.906;8.376;2022-12-18T01:52:06;102092.34;;;-5.28;85.88
19112;BME280;9688;51.906;8.376;2022-12-18T01:54:53;102089.63;;;-5.31;85.75
19112;BME280;9688;51.906;8.376;2022-12-18T01:57:40;102096.47;;;-5.31;85.88
19112;BME280;9688;51.906;8.376;2022-12-18T02:00:27;102087.09;;;-5.29;85.79
19112;BME280;9688;51.906;8.376;2022-12-18T02:03:13;102090.59;;;-5.29;85.81
19112;BME280;9688;51.906;8.376;2022-12-18T02:06:09;102106.84;;;-5.30;85.84
19112;BME280;9688;51.906;8.376;2022-12-18T02:09:03;102093.06;;;-5.30;85.72
19112;BME280;9688;51.906;8.376;2022-12-18T02:11:59;102101.63;;;-5.31;85.84
19112;BME280;9688;51.906;8.376;2022-12-18T02:14:55;102105.91;;;-5.32;86.08
19112;BME280;9688;51.906;8.376;2022-12-18T02:17:49;102103.38;;;-5.30;85.91
19112;BME280;9688;51.906;8.376;2022-12-18T02:20:40;102099.25;;;-5.27;85.96
19112;BME280;9688;51.906;8.376;2022-12-18T02:23:42;102104.59;;;-5.24;85.89
19112;BME280;9688;51.906;8.376;2022-12-18T02:26:36;102099.66;;;-5.19;85.88
19112;BME280;9688;51.906;8.376;2022-12-18T02:29:25;102085.88;;;-5.20;85.81
19112;BME280;9688;51.906;8.376;2022-12-18T02:32:15;102085.00;;;-5.20;86.02
19112;BME280;9688;51.906;8.376;2022-12-18T02:35:07;102082.47;;;-5.19;85.69
19112;BME280;9688;51.906;8.376;2022-12-18T02:37:54;102076.53;;;-5.18;85.83
19112;BME280;9688;51.906;8.376;2022-12-18T02:40:40;102079.03;;;-5.19;85.91
19112;BME280;9688;51.906;8.376;2022-12-18T02:43:29;102077.03;;;-5.25;85.96
19112;BME280;9688;51.906;8.376;2022-12-18T02:46:27;102075.13;;;-5.29;86.06
19112;BME280;9688;51.906;8.376;2022-12-18T02:49:24;102073.44;;;-5.28;85.91
19112;BME280;9688;51.906;8.376;2022-12-18T02:52:20;102078.59;;;-5.28;85.88
19112;BME280;9688;51.906;8.376;2022-12-18T02:55:26;102062.75;;;-5.36;86.01
19112;BME280;9688;51.906;8.376;2022-12-18T02:58:16;102070.16;;;-5.42;86.55
19112;BME280;9688;51.906;8.376;2022-12-18T03:01:10;102084.03;;;-5.40;86.15
19112;BME280;9688;51.906;8.376;2022-12-18T03:04:00;102085.06;;;-5.36;86.48
19112;BME280;9688;51.906;8.376;2022-12-18T03:06:49;102080.94;;;-5.33;86.54
19112;BME280;9688;51.906;8.376;2022-12-18T03:09:41;102071.66;;;-5.29;86.51
19112;BME280;9688;51.906;8.376;2022-12-18T03:12:32;102069.31;;;-5.25;86.18
19112;BME280;9688;51.906;8.376;2022-12-18T03:15:24;102078.16;;;-5.20;86.24
19112;BME280;9688;51.906;8.376;2022-12-18T03:18:18;102073.16;;;-5.17;86.45
19112;BME280;9688;51.906;8.376;2022-12-18T03:21:06;102068.13;;;-5.13;86.21
19112;BME280;9688;51.906;8.376;2022-12-18T03:23:55;102077.72;;;-5.11;86.40
19112;BME280;9688;51.906;8.376;2022-12-18T03:26:44;102077.72;;;-5.11;86.30
19112;BME280;9688;51.906;8.376;2022-12-18T03:29:35;102085.53;;;-5.09;86.36
19112;BME280;9688;51.906;8.376;2022-12-18T03:32:24;102087.28;;;-5.08;86.44
19112;BME280;9688;51.906;8.376;2022-12-18T03:35:14;102092.59;;;-5.05;86.27
19112;BME280;9688;51.906;8.376;2022-12-18T03:38:02;102096.19;;;-5.02;86.24
19112;BME280;9688;51.906;8.376;2022-12-18T03:40:55;102099.75;;;-5.00;86.15
19112;BME280;9688;51.906;8.376;2022-12-18T03:43:47;102091.22;;;-4.99;86.36
19112;BME280;9688;51.906;8.376;2022-12-18T03:46:41;102086.13;;;-4.97;86.16
19112;BME280;9688;51.906;8.376;2022-12-18T03:49:36;102087.81;;;-4.98;86.08
19112;BME280;9688;51.906;8.376;2022-12-18T03:52:27;102085.25;;;-4.98;86.11
19112;BME280;9688;51.906;8.376;2022-12-18T03:55:18;102086.13;;;-4.97;86.18
19112;BME280;9688;51.906;8.376;2022-12-18T03:58:06;102080.31;;;-4.93;86.28
19112;BME280;9688;51.906;8.376;2022-12-18T04:00:54;102072.56;;;-4.93;86.05
19112;BME280;9688;51.906;8.376;2022-12-18T04:03:42;102072.41;;;-4.96;86.29
19112;BME280;9688;51.906;8.376;2022-12-18T04:06:30;102072.25;;;-4.99;85.81
19112;BME280;9688;51.906;8.376;2022-12-18T04:09:22;102075.44;;;-5.05;86.40
19112;BME280;9688;51.906;8.376;2022-12-18T04:12:08;102072.69;;;-5.08;86.60
19112;BME280;9688;51.906;8.376;2022-12-18T04:14:54;102081.41;;;-5.06;86.67
19112;BME280;9688;51.906;8.376;2022-12-18T04:17:47;102083.09;;;-5.06;86.52
19112;BME280;9688;51.906;8.376;2022-12-18T04:20:33;102080.59;;;-5.05;86.94
19112;BME280;9688;51.906;8.376;2022-12-18T04:23:18;102085.75;;;-5.05;86.88
19112;BME280;9688;51.906;8.376;2022-12-18T04:26:05;102089.03;;;-5.07;86.71
19112;BME280;9688;51.906;8.376;2022-12-18T04:28:51;102085.69;;;-5.06;86.75
19112;BME280;9688;51.906;8.376;2022-12-18T04:31:36;102089.22;;;-5.04;86.81
19112;BME280;9688;51.906;8.376;2022-12-18T04:34:22;102094.28;;;-5.06;86.74
19112;BME280;9688;51.906;8.376;2022-12-18T04:37:07;102099.31;;;-5.09;86.88
19112;BME280;9688;51.906;8.376;2022-12-18T04:39:53;102091.63;;;-5.07;86.73
19112;BME280;9688;51.906;8.376;2022-12-18T04:42:41;102096.72;;;-5.09;86.89
19112;BME280;9688;51.906;8.376;2022-12-18T04:45:26;102087.00;;;-5.14;87.23
19112;BME280;9688;51.906;8.376;2022-12-18T04:48:11;102084.19;;;-5.19;87.08
19112;BME280;9688;51.906;8.376;2022-12-18T04:50:57;102093.75;;;-5.17;87.26
19112;BME280;9688;51.906;8.376;2022-12-18T04:53:43;102095.53;;;-5.16;87.67
19112;BME280;9688;51.906;8.376;2022-12-18T04:56:30;102088.75;;;-5.13;87.79
19112;BME280;9688;51.906;8.376;2022-12-18T04:59:18;102095.69;;;-5.12;87.75
19112;BME280;9688;51.906;8.376;2022-12-18T05:02:03;102085.53;;;-5.09;87.78
19112;BME280;9688;51.906;8.376;2022-12-18T05:04:49;102081.56;;;-5.03;87.64
19112;BME280;9688;51.906;8.376;2022-12-18T05:07:34;102079.94;;;-5.01;87.38
19112;BME280;9688;51.906;8.376;2022-12-18T05:10:20;102074.03;;;-4.98;87.40
19112;BME280;9688;51.906;8.376;2022-12-18T05:13:05;102074.94;;;-4.98;87.42
19112;BME280;9688;51.906;8.376;2022-12-18T05:15:53;102082.72;;;-4.96;87.46
19112;BME280;9688;51.906;8.376;2022-12-18T05:18:39;102070.75;;;-4.96;87.39
19112;BME280;9688;51.906;8.376;2022-12-18T05:21:24;102067.41;;;-4.93;87.29
19112;BME280;9688;51.906;8.376;2022-12-18T05:24:10;102069.69;;;-4.99;87.57
19112;BME280;9688;51.906;8.376;2022-12-18T05:26:56;102061.75;;;-5.04;87.71
19112;BME280;9688;51.906;8.376;2022-12-18T05:29:42;102068.59;;;-5.04;87.82
19112;BME280;9688;51.906;8.376;2022-12-18T05:32:32;102073.91;;;-5.01;87.89
19112;BME280;9688;51.906;8.376;2022-12-18T05:35:18;102082.56;;;-4.99;87.73
19112;BME280;9688;51.906;8.376;2022-12-18T05:38:04;102078.38;;;-4.97;87.78
19112;BME280;9688;51.906;8.376;2022-12-18T05:40:50;102078.63;;;-4.93;87.60
19112;BME280;9688;51.906;8.376;2022-12-18T05:43:37;102076.22;;;-4.88;87.56
19112;BME280;9688;51.906;8.376;2022-12-18T05:46:23;102075.66;;;-4.82;87.42
19112;BME280;9688;51.906;8.376;2022-12-18T05:49:10;102076.69;;;-4.79;87.44
19112;BME280;9688;51.906;8.376;2022-12-18T05:51:56;102071.44;;;-4.80;87.06
19112;BME280;9688;51.906;8.376;2022-12-18T05:54:42;102071.41;;;-4.82;87.49
19112;BME280;9688;51.906;8.376;2022-12-18T05:57:27;102081.63;;;-4.83;87.53
19112;BME280;9688;51.906;8.376;2022-12-18T06:00:14;102069.59;;;-4.83;87.40
19112;BME280;9688;51.906;8.376;2022-12-18T06:03:02;102069.41;;;-4.87;87.51
19112;BME280;9688;51.906;8.376;2022-12-18T06:05:49;102067.47;;;-4.91;88.06
19112;BME280;9688;51.906;8.376;2022-12-18T06:08:34;102069.81;;;-4.96;87.96
19112;BME280;9688;51.906;8.376;2022-12-18T06:11:21;102076.53;;;-5.00;88.24
19112;BME280;9688;51.906;8.376;2022-12-18T06:14:09;102074.63;;;-5.04;88.14
19112;BME280;9688;51.906;8.376;2022-12-18T06:16:55;102073.81;;;-5.03;88.27
19112;BME280;9688;51.906;8.376;2022-12-18T06:19:41;102076.47;;;-5.01;88.42
19112;BME280;9688;51.906;8.376;2022-12-18T06:22:52;102079.25;;;-4.97;88.19
19112;BME280;9688;51.906;8.376;2022-12-18T06:25:39;102076.09;;;-4.91;87.66
19112;BME280;9688;51.906;8.376;2022-12-18T06:28:24;102086.56;;;-4.88;88.03
19112;BME280;9688;51.906;8.376;2022-12-18T06:31:10;102090.03;;;-4.87;88.00
19112;BME280;9688;51.906;8.376;2022-12-18T06:33:56;102091.66;;;-4.89;88.11
19112;BME280;9688;51.906;8.376;2022-12-18T06:36:42;102095.84;;;-4.91;88.15
19112;BME280;9688;51.906;8.376;2022-12-18T06:39:29;102095.84;;;-4.91;88.26
19112;BME280;9688;51.906;8.376;2022-12-18T06:42:15;102096.88;;;-4.88;88.13
19112;BME280;9688;51.906;8.376;2022-12-18T06:45:00;102106.69;;;-4.81;88.01
19112;BME280;9688;51.906;8.376;2022-12-18T06:47:45;102105.22;;;-4.76;87.97
19112;BME280;9688;51.906;8.376;2022-12-18T06:50:31;102104.53;;;-4.72;87.89
19112;BME280;9688;51.906;8.376;2022-12-18T06:53:16;102105.59;;;-4.68;87.91
19112;BME280;9688;51.906;8.376;2022-12-18T06:56:06;102115.06;;;-4.67;87.93
19112;BME280;9688;51.906;8.376;2022-12-18T06:58:52;102107.56;;;-4.62;87.84
19112;BME280;9688;51.906;8.376;2022-12-18T07:01:38;102112.00;;;-4.60;87.66
19112;BME280;9688;51.906;8.376;2022-12-18T07:04:27;102113.75;;;-4.59;87.65
19112;BME280;9688;51.906;8.376;2022-12-18T07:07:13;102106.88;;;-4.58;87.75
19112;BME280;9688;51.906;8.376;2022-12-18T07:09:59;102109.47;;;-4.58;87.88
19112;BME280;9688;51.906;8.376;2022-12-18T07:12:53;102105.28;;;-4.56;87.96
19112;BME280;9688;51.906;8.376;2022-12-18T07:15:40;102100.25;;;-4.53;87.89
19112;BME280;9688;51.906;8.376;2022-12-18T07:18:26;102092.72;;;-4.49;87.79
19112;BME280;9688;51.906;8.376;2022-12-18T07:21:13;102103.19;;;-4.45;88.12
19112;BME280;9688;51.906;8.376;2022-12-18T07:24:00;102100.66;;;-4.44;88.05
19112;BME280;9688;51.906;8.376;2022-12-18T07:26:46;102107.66;;;-4.41;87.87
19112;BME280;9688;51.906;8.376;2022-12-18T07:29:33;102100.81;;;-4.41;88.23
19112;BME280;9688;51.906;8.376;2022-12-18T07:32:19;102094.91;;;-4.38;88.18
19112;BME280;9688;51.906;8.376;2022-12-18T07:35:05;102097.56;;;-4.37;87.93
19112;BME280;9688;51.906;8.376;2022-12-18T07:37:51;102099.31;;;-4.36;88.07
19112;BME280;9688;51.906;8.376;2022-12-18T07:40:36;102108.16;;;-4.31;88.16
19112;BME280;9688;51.906;8.376;2022-12-18T07:43:21;102112.69;;;-4.27;88.19
19112;BME280;9688;51.906;8.376;2022-12-18T07:46:09;102108.59;;;-4.21;88.09
19112;BME280;9688;51.906;8.376;2022-12-18T07:48:55;102112.22;;;-4.18;88.12
19112;BME280;9688;51.906;8.376;2022-12-18T07:51:43;102115.72;;;-4.16;88.01
19112;BME280;9688;51.906;8.376;2022-12-18T07:54:33;102110.72;;;-4.13;88.15
19112;BME280;9688;51.906;8.376;2022-12-18T07:57:19;102104.00;;;-4.09;88.24
19112;BME280;9688;51.906;8.376;2022-12-18T08:00:06;102102.19;;;-4.10;88.09
19112;BME280;9688;51.906;8.376;2022-12-18T08:02:53;102093.53;;;-4.12;88.28
19112;BME280;9688;51.906;8.376;2022-12-18T08:05:39;102091.75;;;-4.13;88.47
19112;BME280;9688;51.906;8.376;2022-12-18T08:08:24;102094.28;;;-4.15;88.44
19112;BME280;9688;51.906;8.376;2022-12-18T08:11:10;102089.28;;;-4.10;88.48
19112;BME280;9688;51.906;8.376;2022-12-18T08:13:56;102084.47;;;-4.03;88.36
19112;BME280;9688;51.906;8.376;2022-12-18T08:16:42;102084.09;;;-3.92;88.41
19112;BME280;9688;51.906;8.376;2022-12-18T08:19:28;102067.28;;;-3.83;88.49
19112;BME280;9688;51.906;8.376;2022-12-18T08:22:14;102066.72;;;-3.75;88.05
19112;BME280;9688;51.906;8.376;2022-12-18T08:24:59;102066.94;;;-3.71;88.09
19112;BME280;9688;51.906;8.376;2022-12-18T08:27:45;102060.19;;;-3.67;88.21
19112;BME280;9688;51.906;8.376;2022-12-18T08:30:30;102056.91;;;-3.63;88.20
19112;BME280;9688;51.906;8.376;2022-12-18T08:33:15;102063.16;;;-3.58;88.33
19112;BME280;9688;51.906;8.376;2022-12-18T08:36:04;102066.84;;;-3.53;88.30
19112;BME280;9688;51.906;8.376;2022-12-18T08:38:50;102059.44;;;-3.44;88.34
19112;BME280;9688;51.906;8.376;2022-12-18T08:41:36;102064.94;;;-3.36;88.47
19112;BME280;9688;51.906;8.376;2022-12-18T08:44:21;102063.56;;;-3.28;88.07
19112;BME280;9688;51.906;8.376;2022-12-18T08:47:24;102060.53;;;-3.18;87.74
19112;BME280;9688;51.906;8.376;2022-12-18T08:50:11;102056.63;;;-3.08;87.72
19112;BME280;9688;51.906;8.376;2022-12-18T08:53:00;102067.34;;;-2.99;88.07
19112;BME280;9688;51.906;8.376;2022-12-18T08:55:46;102059.88;;;-2.91;87.75
19112;BME280;9688;51.906;8.376;2022-12-18T08:58:31;102069.66;;;-2.84;88.07
19112;BME280;9688;51.906;8.376;2022-12-18T09:01:17;102068.34;;;-2.74;87.54
19112;BME280;9688;51.906;8.376;2022-12-18T09:04:03;102060.16;;;-2.62;87.54
19112;BME280;9688;51.906;8.376;2022-12-18T09:06:49;102047.63;;;-2.52;87.48
19112;BME280;9688;51.906;8.376;2022-12-18T09:09:37;102060.06;;;-2.41;87.17
19112;BME280;9688;51.906;8.376;2022-12-18T09:12:24;102056.25;;;-2.29;87.11
19112;BME280;9688;51.906;8.376;2022-12-18T09:15:13;102060.06;;;-2.19;86.93
19112;BME280;9688;51.906;8.376;2022-12-18T09:17:59;102052.63;;;-2.10;87.14
19112;BME280;9688;51.906;8.376;2022-12-18T09:20:45;102060.78;;;-1.99;86.68
19112;BME280;9688;51.906;8.376;2022-12-18T09:23:31;102062.06;;;-1.88;86.74
19112;BME280;9688;51.906;8.376;2022-12-18T09:26:18;102051.06;;;-1.81;86.61
19112;BME280;9688;51.906;8.376;2022-12-18T09:29:04;102051.34;;;-1.73;87.12
19112;BME280;9688;51.906;8.376;2022-12-18T09:31:51;102049.78;;;-1.68;86.75
19112;BME280;9688;51.906;8.376;2022-12-18T09:34:36;102049.22;;;-1.59;87.03
19112;BME280;9688;51.906;8.376;2022-12-18T09:37:22;102054.72;;;-1.50;87.16
19112;BME280;9688;51.906;8.376;2022-12-18T09:40:13;102048.16;;;-1.39;87.03
19112;BME280;9688;51.906;8.376;2022-12-18T09:43:04;102043.31;;;-1.29;86.24
19112;BME280;9688;51.906;8.376;2022-12-18T09:45:53;102044.34;;;-1.24;86.04
19112;BME280;9688;51.906;8.376;2022-12-18T09:48:42;102052.34;;;-1.17;86.70
19112;BME280;9688;51.906;8.376;2022-12-18T09:51:33;102057.00;;;-1.08;85.82
19112;BME280;9688;51.906;8.376;2022-12-18T09:54:22;102056.31;;;-1.02;86.34
19112;BME280;9688;51.906;8.376;2022-12-18T09:57:15;102063.44;;;-0.95;85.98
19112;BME280;9688;51.906;8.376;2022-12-18T10:00:15;102062.72;;;-0.91;86.27
19112;BME280;9688;51.906;8.376;2022-12-18T10:03:08;102052.72;;;-0.79;86.36
19112;BME280;9688;51.906;8.376;2022-12-18T10:06:02;102064.28;;;-0.69;85.29
19112;BME280;9688;51.906;8.376;2022-12-18T10:08:55;102055.03;;;-0.59;85.19
19112;BME280;9688;51.906;8.376;2022-12-18T10:11:53;102053.56;;;-0.51;85.16
19112;BME280;9688;51.906;8.376;2022-12-18T10:14:44;102048.63;;;-0.42;85.38
19112;BME280;9688;51.906;8.376;2022-12-18T10:17:38;102039.41;;;-0.32;85.40
19112;BME280;9688;51.906;8.376;2022-12-18T10:20:32;102028.28;;;-0.27;85.06
19112;BME280;9688;51.906;8.376;2022-12-18T10:23:24;102020.03;;;-0.13;84.91
19112;BME280;9688;51.906;8.376;2022-12-18T10:26:11;102001.28;;;-0.02;84.81
19112;BME280;9688;51.906;8.376;2022-12-18T10:28:58;101986.75;;;0.07;84.17
19112;BME280;9688;51.906;8.376;2022-12-18T10:31:44;101981.78;;;0.16;83.99
19112;BME280;9688;51.906;8.376;2022-12-18T10:34:31;101968.78;;;0.14;84.54
19112;BME280;9688;51.906;8.376;2022-12-18T10:37:18;101972.47;;;0.22;83.76
19112;BME280;9688;51.906;8.376;2022-12-18T10:40:11;101982.13;;;0.28;83.48
19112;BME280;9688;51.906;8.376;2022-12-18T10:43:10;101977.03;;;0.33;83.57
19112;BME280;9688;51.906;8.376;2022-12-18T10:46:01;101966.81;;;0.40;83.37
19112;BME280;9688;51.906;8.376;2022-12-18T10:48:51;101973.88;;;0.44;83.10
19112;BME280;9688;51.906;8.376;2022-12-18T10:51:39;101974.69;;;0.43;82.73
19112;BME280;9688;51.906;8.376;2022-12-18T10:54:25;101973.88;;;0.44;82.70
19112;BME280;9688;51.906;8.376;2022-12-18T10:57:15;101969.56;;;0.45;82.48
19112;BME280;9688;51.906;8.376;2022-12-18T11:00:20;101956.63;;;0.48;82.72
19112;BME280;9688;51.906;8.376;2022-12-18T11:03:29;101943.63;;;0.48;81.70
19112;BME280;9688;51.906;8.376;2022-12-18T11:06:17;101936.88;;;0.56;81.61
19112;BME280;9688;51.906;8.376;2022-12-18T11:09:05;101928.34;;;0.62;81.41
19112;BME280;9688;51.906;8.376;2022-12-18T11:11:56;101916.25;;;0.65;81.41
19112;BME280;9688;51.906;8.376;2022-12-18T11:14:47;101920.59;;;0.65;81.05
19112;BME280;9688;51.906;8.376;2022-12-18T11:17:35;101914.53;;;0.66;80.90
19112;BME280;9688;51.906;8.376;2022-12-18T11:20:29;101892.97;;;0.72;80.92
19112;BME280;9688;51.906;8.376;2022-12-18T11:23:16;101894.91;;;0.80;80.24
19112;BME280;9688;51.906;8.376;2022-12-18T11:26:04;101887.19;;;0.85;80.24
19112;BME280;9688;51.906;8.376;2022-12-18T11:28:52;101886.44;;;0.89;80.10
19112;BME280;9688;51.906;8.376;2022-12-18T11:31:38;101890.00;;;0.94;79.98
19112;BME280;9688;51.906;8.376;2022-12-18T11:34:26;101891.84;;;1.00;79.15
19112;BME280;9688;51.906;8.376;2022-12-18T11:37:13;101886.94;;;1.14;79.11
19112;BME280;9688;51.906;8.376;2022-12-18T11:40:09;101882.00;;;1.26;78.66
19112;BME280;9688;51.906;8.376;2022-12-18T11:43:06;101874.34;;;1.35;78.15
19112;BME280;9688;51.906;8.376;2022-12-18T11:45:58;101880.59;;;1.43;77.88
19112;BME280;9688;51.906;8.376;2022-12-18T11:48:48;101874.66;;;1.50;77.70
19112;BME280;9688;51.906;8.376;2022-12-18T11:51:41;101864.25;;;1.50;77.34
19112;BME280;9688;51.906;8.376;2022-12-18T11:54:29;101868.66;;;1.54;77.00
19112;BME280;9688;51.906;8.376;2022-12-18T11:57:25;101860.00;;;1.55;76.94
19112;BME280;9688;51.906;8.376;2022-12-18T12:00:19;101848.75;;;1.58;76.74
19112;BME280;9688;51.906;8.376;2022-12-18T12:03:27;101840.16;;;1.64;76.31
19112;BME280;9688;51.906;8.376;2022-12-18T12:06:26;101825.50;;;1.70;75.83
19112;BME280;9688;51.906;8.376;2022-12-18T12:09:23;101820.38;;;1.76;75.63
19112;BME280;9688;51.906;8.376;2022-12-18T12:12:26;101820.44;;;1.78;75.11
19112;BME280;9688;51.906;8.376;2022-12-18T12:15:45;101822.16;;;1.77;75.16
19112;BME280;9688;51.906;8.376;2022-12-18T12:18:42;101826.59;;;1.83;75.13
19112;BME280;9688;51.906;8.376;2022-12-18T12:21:37;101821.38;;;1.83;74.27
19112;BME280;9688;51.906;8.376;2022-12-18T12:24:32;101807.53;;;1.87;74.07
19112;BME280;9688;51.906;8.376;2022-12-18T12:27:29;101801.53;;;1.91;73.58
19112;BME280;9688;51.906;8.376;2022-12-18T12:30:22;101806.66;;;1.88;73.68
19112;BME280;9688;51.906;8.376;2022-12-18T12:33:23;101805.03;;;1.93;73.27
19112;BME280;9688;51.906;8.376;2022-12-18T12:36:21;101805.97;;;1.98;73.10
19112;BME280;9688;51.906;8.376;2022-12-18T12:39:15;101806.84;;;1.97;73.07
19112;BME280;9688;51.906;8.376;2022-12-18T12:42:04;101805.13;;;1.99;72.59
19112;BME280;9688;51.906;8.376;2022-12-18T12:45:15;101803.38;;;1.98;72.25
19112;BME280;9688;51.906;8.376;2022-12-18T12:48:04;101818.22;;;2.03;72.22
19112;BME280;9688;51.906;8.376;2022-12-18T12:50:55;101813.03;;;2.04;72.09
19112;BME280;9688;51.906;8.376;2022-12-18T12:53:43;101811.28;;;2.05;71.78
19112;BME280;9688;51.906;8.376;2022-12-18T12:56:38;101813.88;;;2.05;71.69
19112;BME280;9688;51.906;8.376;2022-12-18T12:59:29;101802.63;;;2.07;71.26
19112;BME280;9688;51.906;8.376;2022-12-18T13:02:20;101789.59;;;2.07;71.14
19112;BME280;9688;51.906;8.376;2022-12-18T13:05:16;101778.28;;;2.07;70.83
19112;BME280;9688;51.906;8.376;2022-12-18T13:08:07;101772.22;;;2.08;70.84
19112;BME280;9688;51.906;8.376;2022-12-18T13:10:53;101767.84;;;2.07;70.47
19112;BME280;9688;51.906;8.376;2022-12-18T13:14:01;101762.56;;;2.02;70.60
19112;BME280;9688;51.906;8.376;2022-12-18T13:16:45;101761.72;;;2.03;70.35
19112;BME280;9688;51.906;8.376;2022-12-18T13:19:31;101759.13;;;2.03;70.09
19112;BME280;9688;51.906;8.376;2022-12-18T13:22:21;101746.09;;;2.03;70.01
19112;BME280;9688;51.906;8.376;2022-12-18T13:25:29;101735.66;;;2.05;69.81
19112;BME280;9688;51.906;8.376;2022-12-18T13:28:16;101726.13;;;2.07;69.44
19112;BME280;9688;51.906;8.376;2022-12-18T13:31:03;101730.47;;;2.06;68.89
19112;BME280;9688;51.906;8.376;2022-12-18T13:33:49;101729.59;;;2.06;69.45
19112;BME280;9688;51.906;8.376;2022-12-18T13:36:35;101726.13;;;2.07;69.16
19112;BME280;9688;51.906;8.376;2022-12-18T13:39:31;101722.53;;;1.98;69.45
19112;BME280;9688;51.906;8.376;2022-12-18T13:42:40;101732.94;;;1.95;69.09
19112;BME280;9688;51.906;8.376;2022-12-18T13:45:45;101725.94;;;1.91;69.20
19112;BME280;9688;51.906;8.376;2022-12-18T13:48:35;101722.47;;;1.94;69.33
19112;BME280;9688;51.906;8.376;2022-12-18T13:51:24;101726.88;;;1.98;68.75
19112;BME280;9688;51.906;8.376;2022-12-18T13:54:18;101726.88;;;1.98;68.20
19112;BME280;9688;51.906;8.376;2022-12-18T13:57:25;101716.44;;;1.98;68.31
19112;BME280;9688;51.906;8.376;2022-12-18T14:00:28;101717.31;;;1.98;68.39
19112;BME280;9688;51.906;8.376;2022-12-18T14:03:22;101719.94;;;1.98;68.29
19112;BME280;9688;51.906;8.376;2022-12-18T14:06:11;101716.41;;;1.95;68.25
19112;BME280;9688;51.906;8.376;2022-12-18T14:08:58;101712.09;;;1.98;67.89
19112;BME280;9688;51.906;8.376;2022-12-18T14:11:47;101709.53;;;2.00;67.95
19112;BME280;9688;51.906;8.376;2022-12-18T14:14:33;101717.41;;;2.05;67.55
19112;BME280;9688;51.906;8.376;2022-12-18T14:17:20;101719.19;;;2.07;67.18
19112;BME280;9688;51.906;8.376;2022-12-18T14:20:14;101726.13;;;2.07;67.13
19112;BME280;9688;51.906;8.376;2022-12-18T14:23:00;101721.78;;;2.06;67.24
19112;BME280;9688;51.906;8.376;2022-12-18T14:25:46;101707.00;;;2.08;66.90
19112;BME280;9688;51.906;8.376;2022-12-18T14:28:32;101700.94;;;2.07;66.99
19112;BME280;9688;51.906;8.376;2022-12-18T14:31:20;101716.53;;;2.04;66.83
19112;BME280;9688;51.906;8.376;2022-12-18T14:34:15;101716.53;;;2.03;66.89
19112;BME280;9688;51.906;8.376;2022-12-18T14:37:04;101713.91;;;2.03;66.88
19112;BME280;9688;51.906;8.376;2022-12-18T14:39:55;101710.41;;;2.02;66.52
19112;BME280;9688;51.906;8.376;2022-12-18T14:42:42;101710.44;;;2.04;66.47
19112;BME280;9688;51.906;8.376;2022-12-18T14:45:35;101709.56;;;2.05;66.35
19112;BME280;9688;51.906;8.376;2022-12-18T14:48:25;101701.78;;;2.08;66.43
19112;BME280;9688;51.906;8.376;2022-12-18T14:51:20;101695.66;;;2.04;66.22
19112;BME280;9688;51.906;8.376;2022-12-18T14:54:15;101693.94;;;2.03;66.09
19112;BME280;9688;51.906;8.376;2022-12-18T14:57:03;101683.41;;;1.98;66.10
19112;BME280;9688;51.906;8.376;2022-12-18T14:59:49;101683.38;;;1.95;66.30